Time;durP1;ratioP1;P1;durP2;ratioP2;P2;SDS_P1;SDS_P2;PMS_P1;PMS_P2;Temp;Humidity;BMP_temperature;BMP_pressure;BME280_temperature;BME280_humidity;BME280_pressure;Samples;Min_cycle;Max_cycle;Signal;HPM_P1;HPM_P2
2022/04/20 00:01:42;;;;;;;;;;;;;;;18.63;42.36;100672.39;104203;1314;61286;-86
2022/04/20 00:04:18;;;;;;;;;;;;;;;18.63;42.32;100674.05;104206;1314;72921;-83
2022/04/20 00:07:17;;;;;;;;;;;;;;;;;;;;;
2022/04/20 00:10:14;;;;;;;;;;;;;;;18.62;42.33;100677.29;103446;1320;61056;-84
2022/04/20 00:13:09;;;;;;;;;;;;;;;;;;;;;
2022/04/20 00:15:52;;;;;;;;;;;;;;;18.61;42.36;100677.18;103109;1322;73824;-86
2022/04/20 00:18:58;;;;;;;;;;;;;;;;;;;;;
2022/04/20 00:21:42;;;;;;;;;;;;;;;18.61;42.29;100672.91;103333;1320;61305;-84
2022/04/20 00:24:47;;;;;;;;;;;;;;;18.60;42.25;100670.80;103247;1321;61829;-82
2022/04/20 00:27:40;;;;;;;;;;;;;;;18.59;42.24;100678.14;103389;1321;72233;-82
2022/04/20 00:30:46;;;;;;;;;;;;;;;18.59;42.20;100673.86;103337;1322;76227;-83
2022/04/20 00:33:25;;;;;;;;;;;;;;;;;;;;;
2022/04/20 00:36:17;;;;;;;;;;;;;;;18.59;42.20;100679.23;103243;1323;61358;-86
2022/04/20 00:38:54;;;;;;;;;;;;;;;18.58;42.30;100685.14;102692;1329;73123;-83
2022/04/20 00:41:54;;;;;;;;;;;;;;;;;;;;;
2022/04/20 00:44:50;;;;;;;;;;;;;;;18.58;42.18;100686.93;102332;1335;61059;-84
2022/04/20 00:48:05;;;;;;;;;;;;;;;18.58;42.19;100684.27;102046;1335;61454;-85
2022/04/20 00:50:51;;;;;;;;;;;;;;;18.58;42.23;100688.93;102315;1335;74152;-83
2022/04/20 00:53:37;;;;;;;;;;;;;;;18.58;42.15;100688.42;102286;1335;74688;-80
2022/04/20 00:56:32;;;;;;;;;;;;;;;18.57;42.21;100687.21;102137;1335;61521;-87
2022/04/20 00:59:31;;;;;;;;;;;;;;;18.56;42.24;100688.83;102319;1335;61253;-83
2022/04/20 01:02:36;;;;;;;;;;;;;;;;;;;;;
2022/04/20 01:05:27;;;;;;;;;;;;;;;18.56;42.18;100681.92;101918;1339;74831;-81
2022/04/20 01:08:37;;;;;;;;;;;;;;;18.56;42.16;100684.06;101905;1340;61379;-87
2022/04/20 01:11:11;;;;;;;;;;;;;;;18.56;42.21;100688.01;101929;1339;61221;-83
2022/04/20 01:14:04;;;;;;;;;;;;;;;18.55;42.28;100688.20;101923;1341;73020;-82
2022/04/20 01:16:50;;;;;;;;;;;;;;;18.55;42.23;100689.80;102056;1335;74993;-79
2022/04/20 01:19:24;;;;;;;;;;;;;;;18.55;42.19;100689.11;102345;1329;61194;-82
2022/04/20 01:22:03;;;;;;;;;;;;;;;;;;;;;
2022/04/20 01:25:19;;;;;;;;;;;;;;;;;;;;;
2022/04/20 01:27:56;;;;;;;;;;;;;;;;;;;;;
2022/04/20 01:30:44;;;;;;;;;;;;;;;;;;;;;
2022/04/20 01:33:41;;;;;;;;;;;;;;;18.53;42.22;100682.08;103134;1322;61179;-88
2022/04/20 01:36:51;;;;;;;;;;;;;;;18.53;42.22;100676.79;103136;1322;76081;-80
2022/04/20 01:39:54;;;;;;;;;;;;;;;18.53;42.20;100669.84;103208;1322;75877;-85
2022/04/20 01:42:39;;;;;;;;;;;;;;;18.52;42.19;100668.10;103752;1315;61310;-87
2022/04/20 01:46:06;;;;;;;;;;;;;;;18.52;42.25;100669.36;103373;1320;61180;-84
2022/04/20 01:48:54;;;;;;;;;;;;;;;;;;;;;
2022/04/20 01:54:50;;;;;;;;;;;;;;;18.52;42.14;100669.36;103343;1322;61262;-85
2022/04/20 01:57:18;;;;;;;;;;;;;;;18.51;42.14;100667.96;103272;1322;61221;-83
2022/04/20 02:00:31;;;;;;;;;;;;;;;18.51;42.05;100658.20;103322;1321;72826;-85
2022/04/20 02:03:05;;;;;;;;;;;;;;;18.51;42.16;100652.49;103338;1320;76706;-87
2022/04/20 02:05:55;;;;;;;;;;;;;;;18.50;42.21;100649.67;103198;1322;61275;-86
2022/04/20 02:09:11;;;;;;;;;;;;;;;;;;;;;
2022/04/20 02:11:47;;;;;;;;;;;;;;;18.49;42.14;100640.45;102508;1326;72295;-83
2022/04/20 02:14:39;;;;;;;;;;;;;;;18.48;42.19;100641.58;102691;1327;75813;-84
2022/04/20 02:17:25;;;;;;;;;;;;;;;18.49;42.16;100647.25;102825;1326;61696;-83
2022/04/20 02:20:48;;;;;;;;;;;;;;;18.49;42.18;100649.60;102783;1326;61321;-83
2022/04/20 02:23:22;;;;;;;;;;;;;;;18.48;42.14;100658.20;102560;1329;71756;-84
2022/04/20 02:25:55;;;;;;;;;;;;;;;18.48;42.08;100657.81;102753;1328;75944;-83
2022/04/20 02:28:44;;;;;;;;;;;;;;;18.48;42.14;100652.84;102665;1328;62880;-83
2022/04/20 02:31:31;;;;;;;;;;;;;;;;;;;;;
2022/04/20 02:34:26;;;;;;;;;;;;;;;18.47;42.12;100656.29;102551;1332;74311;-85
2022/04/20 02:37:12;;;;;;;;;;;;;;;18.47;42.12;100654.17;102540;1331;76059;-86
2022/04/20 02:39:45;;;;;;;;;;;;;;;18.46;42.12;100656.17;102543;1330;61154;-87
2022/04/20 02:43:05;;;;;;;;;;;;;;;18.46;42.16;100656.71;102530;1332;61415;-88
2022/04/20 02:45:50;;;;;;;;;;;;;;;18.46;42.17;100660.30;102582;1332;73914;-84
2022/04/20 02:51:55;;;;;;;;;;;;;;;;;;;;;
2022/04/20 02:54:30;;;;;;;;;;;;;;;18.45;42.05;100678.70;102438;1333;60353;-85
2022/04/20 02:57:33;;;;;;;;;;;;;;;18.45;42.09;100672.98;102414;1332;71710;-81
2022/04/20 03:00:27;;;;;;;;;;;;;;;18.45;42.11;100675.86;102530;1329;76246;-84
2022/04/20 03:03:19;;;;;;;;;;;;;;;18.44;42.15;100682.30;102711;1329;61252;-83
2022/04/20 03:06:36;;;;;;;;;;;;;;;;;;;;;
2022/04/20 03:09:30;;;;;;;;;;;;;;;18.44;42.09;100681.23;102462;1332;72977;-85
2022/04/20 03:11:58;;;;;;;;;;;;;;;18.44;42.13;100678.75;102725;1326;73863;-83
2022/04/20 03:14:54;;;;;;;;;;;;;;;;;;;;;
2022/04/20 03:18:31;;;;;;;;;;;;;;;;;;;;;
2022/04/20 03:21:09;;;;;;;;;;;;;;;18.43;42.13;100688.96;102626;1329;72928;-81
2022/04/20 03:24:06;;;;;;;;;;;;;;;18.43;42.10;100691.11;102631;1329;76347;-85
2022/04/20 03:26:52;;;;;;;;;;;;;;;18.42;42.11;100687.02;102594;1329;61380;-83
2022/04/20 03:29:47;;;;;;;;;;;;;;;18.43;42.08;100689.86;102717;1327;61313;-85
2022/04/20 03:36:09;;;;;;;;;;;;;;;18.42;42.08;100692.77;101982;1339;73564;-78
2022/04/20 03:38:57;;;;;;;;;;;;;;;18.42;42.10;100693.46;101767;1344;61438;-81
2022/04/20 03:41:35;;;;;;;;;;;;;;;18.42;42.05;100696.86;101807;1342;61963;-86
2022/04/20 03:44:40;;;;;;;;;;;;;;;;;;;;;
2022/04/20 03:47:25;;;;;;;;;;;;;;;;;;;;;
2022/04/20 03:50:41;;;;;;;;;;;;;;;18.42;41.94;100702.03;101663;1347;61214;-88
2022/04/20 03:53:28;;;;;;;;;;;;;;;18.42;42.10;100706.50;101612;1348;61563;-82
2022/04/20 03:56:13;;;;;;;;;;;;;;;18.41;41.98;100714.17;101661;1347;73973;-85
2022/04/20 03:59:02;;;;;;;;;;;;;;;18.42;41.95;100713.79;101514;1351;73621;-82
2022/04/20 04:02:08;;;;;;;;;;;;;;;18.41;41.95;100714.54;101697;1345;61254;-83
2022/04/20 04:05:08;;;;;;;;;;;;;;;18.41;41.93;100718.13;101764;1345;60827;-85
2022/04/20 04:08:14;;;;;;;;;;;;;;;18.41;41.91;100728.09;101845;1341;71688;-84
2022/04/20 04:11:04;;;;;;;;;;;;;;;;;;;;;
2022/04/20 04:13:49;;;;;;;;;;;;;;;18.40;41.95;100727.77;101987;1338;60325;-84
2022/04/20 04:16:14;;;;;;;;;;;;;;;18.40;41.80;100729.73;102384;1330;61249;-84
2022/04/20 04:19:11;;;;;;;;;;;;;;;;;;;;;
2022/04/20 04:21:57;;;;;;;;;;;;;;;;;;;;;
2022/04/20 04:24:56;;;;;;;;;;;;;;;;;;;;;
2022/04/20 04:28:03;;;;;;;;;;;;;;;18.40;41.63;100742.05;103010;1325;61593;-85
2022/04/20 04:30:29;;;;;;;;;;;;;;;18.40;41.75;100747.56;102725;1326;72049;-83
2022/04/20 04:33:44;;;;;;;;;;;;;;;18.40;41.62;100747.42;102761;1326;75894;-85
2022/04/20 04:36:15;;;;;;;;;;;;;;;18.40;41.68;100741.55;103001;1323;61340;-85
2022/04/20 04:39:32;;;;;;;;;;;;;;;;;;;;;
2022/04/20 04:42:43;;;;;;;;;;;;;;;18.39;41.71;100743.71;102743;1328;73902;-84
2022/04/20 04:51:47;;;;;;;;;;;;;;;18.40;41.63;100736.56;102505;1332;61305;-82
2022/04/20 04:54:39;;;;;;;;;;;;;;;18.40;41.74;100735.11;102410;1332;73339;-83
2022/04/20 04:57:24;;;;;;;;;;;;;;;18.40;41.58;100735.64;102196;1333;76272;-86
2022/04/20 05:00:01;;;;;;;;;;;;;;;18.40;41.63;100734.24;102306;1335;61485;-85
2022/04/20 05:02:47;;;;;;;;;;;;;;;18.40;41.62;100734.40;102135;1335;61401;-82
2022/04/20 05:05:55;;;;;;;;;;;;;;;18.40;41.66;100738.13;102316;1335;71436;-84
2022/04/20 05:08:47;;;;;;;;;;;;;;;18.40;41.64;100740.60;102442;1332;76097;-84
2022/04/20 05:11:23;;;;;;;;;;;;;;;18.40;41.61;100743.83;102547;1332;61188;-85
2022/04/20 05:14:21;;;;;;;;;;;;;;;18.40;41.60;100748.80;102519;1332;63030;-85
2022/04/20 05:16:55;;;;;;;;;;;;;;;18.41;41.63;100749.14;102179;1334;73865;-87
2022/04/20 05:19:51;;;;;;;;;;;;;;;18.41;41.64;100749.85;102666;1323;75981;-82
2022/04/20 05:22:27;;;;;;;;;;;;;;;18.41;41.59;100748.77;102990;1323;61316;-81
2022/04/20 05:25:07;;;;;;;;;;;;;;;18.42;41.66;100747.45;103093;1323;61217;-84
2022/04/20 05:28:13;;;;;;;;;;;;;;;18.42;41.70;100743.69;102682;1326;71635;-82
2022/04/20 05:31:21;;;;;;;;;;;;;;;18.43;41.69;100743.81;102932;1326;73620;-85
2022/04/20 05:43:46;;;;;;;;;;;;;;;18.48;41.75;100728.07;102866;1327;73695;-79
2022/04/20 05:47:11;;;;;;;;;;;;;;;18.49;41.61;100721.08;102931;1323;61822;-86
2022/04/20 05:49:37;;;;;;;;;;;;;;;;;;;;;
2022/04/20 05:52:55;;;;;;;;;;;;;;;18.51;41.84;100723.42;102823;1324;71585;-81
2022/04/20 05:56:14;;;;;;;;;;;;;;;18.51;41.71;100722.31;103470;1320;74793;-82
2022/04/20 05:59:03;;;;;;;;;;;;;;;18.53;41.78;100722.04;103482;1320;61892;-84
2022/04/20 06:01:50;;;;;;;;;;;;;;;;;;;;;
2022/04/20 06:04:37;;;;;;;;;;;;;;;18.54;41.79;100719.27;103307;1321;72829;-83
2022/04/20 06:07:43;;;;;;;;;;;;;;;18.55;41.90;100717.95;103974;1317;73526;-83
2022/04/20 06:10:39;;;;;;;;;;;;;;;;;;;;;
2022/04/20 06:16:48;;;;;;;;;;;;;;;18.59;41.74;100702.77;104063;1314;72899;-82
2022/04/20 06:19:57;;;;;;;;;;;;;;;18.59;41.91;100703.27;104234;1315;73448;-82
2022/04/20 06:23:14;;;;;;;;;;;;;;;18.62;41.79;100705.30;103141;1321;61408;-83
2022/04/20 06:26:11;;;;;;;;;;;;;;;18.62;41.78;100700.27;102739;1329;61172;-82
2022/04/20 06:29:17;;;;;;;;;;;;;;;18.63;41.82;100704.86;102241;1334;73850;-81
2022/04/20 06:32:18;;;;;;;;;;;;;;;18.64;41.82;100705.85;102173;1335;73788;-82
2022/04/20 06:35:15;;;;;;;;;;;;;;;;;;;;;
2022/04/20 06:38:39;;;;;;;;;;;;;;;;;;;;;
2022/04/20 06:41:31;;;;;;;;;;;;;;;18.66;41.89;100696.29;101779;1342;71753;-88
2022/04/20 06:44:30;;;;;;;;;;;;;;;18.67;41.85;100693.39;101840;1340;74866;-84
2022/04/20 06:47:27;;;;;;;;;;;;;;;;;;;;;
2022/04/20 06:50:30;;;;;;;;;;;;;;;18.68;41.84;100689.95;97538;1343;5975156;-85
2022/04/20 06:59:58;;;;;;;;;;;;;;;18.69;41.88;100699.11;101516;1347;74731;-82
2022/04/20 07:03:03;;;;;;;;;;;;;;;18.69;41.88;100697.14;101738;1341;61490;-79
2022/04/20 07:05:30;;;;;;;;;;;;;;;18.69;41.87;100691.42;101947;1335;61675;-83
2022/04/20 07:08:57;;;;;;;;;;;;;;;18.70;41.88;100694.96;102099;1335;71587;-86
2022/04/20 07:11:41;;;;;;;;;;;;;;;18.70;41.82;100702.61;102168;1334;76380;-80
2022/04/20 07:14:55;;;;;;;;;;;;;;;18.71;41.92;100704.19;102608;1328;61213;-84
2022/04/20 07:17:38;;;;;;;;;;;;;;;18.70;41.88;100705.11;102481;1329;61993;-82
2022/04/20 07:20:27;;;;;;;;;;;;;;;18.70;41.96;100705.98;102249;1335;71501;-86
2022/04/20 07:23:13;;;;;;;;;;;;;;;18.71;41.89;100699.90;101837;1340;76366;-81
2022/04/20 07:26:43;;;;;;;;;;;;;;;18.70;41.80;100699.73;101738;1341;61247;-84
2022/04/20 07:29:30;;;;;;;;;;;;;;;18.71;41.92;100699.19;102613;1326;61286;-81
2022/04/20 07:32:48;;;;;;;;;;;;;;;18.71;41.92;100695.61;102860;1326;71488;-84
2022/04/20 07:35:25;;;;;;;;;;;;;;;;;;;;;
2022/04/20 07:38:28;;;;;;;;;;;;;;;18.71;41.95;100689.36;102392;1332;61240;-87
2022/04/20 07:41:38;;;;;;;;;;;;;;;18.71;41.93;100688.65;101885;1338;61232;-85
2022/04/20 07:44:43;;;;;;;;;;;;;;;18.72;41.97;100683.59;101922;1338;72913;-85
2022/04/20 07:47:32;;;;;;;;;;;;;;;;;;;;;
2022/04/20 07:50:40;;;;;;;;;;;;;;;;;;;;;
2022/04/20 07:53:35;;;;;;;;;;;;;;;18.71;41.93;100668.67;101952;1338;61788;-83
2022/04/20 07:56:38;;;;;;;;;;;;;;;18.72;41.98;100664.73;101883;1338;73068;-82
2022/04/20 07:59:24;;;;;;;;;;;;;;;18.71;41.90;100660.46;102025;1335;74187;-82
2022/04/20 08:02:21;;;;;;;;;;;;;;;18.72;41.88;100655.82;102335;1335;61320;-80
2022/04/20 08:05:16;;;;;;;;;;;;;;;;;;;;;
2022/04/20 08:08:10;;;;;;;;;;;;;;;;;;;;;
2022/04/20 08:10:49;;;;;;;;;;;;;;;18.72;41.96;100651.52;102247;1335;75488;-83
2022/04/20 08:14:16;;;;;;;;;;;;;;;18.72;41.92;100648.84;102614;1329;61210;-85
2022/04/20 08:16:34;;;;;;;;;;;;;;;;;;;;;
2022/04/20 08:19:31;;;;;;;;;;;;;;;18.71;41.89;100642.09;103125;1320;72813;-82
2022/04/20 08:22:22;;;;;;;;;;;;;;;18.72;41.93;100632.08;103121;1320;76294;-81
2022/04/20 08:24:56;;;;;;;;;;;;;;;18.72;41.99;100624.40;103090;1320;61421;-82
2022/04/20 08:27:34;;;;;;;;;;;;;;;18.72;42.05;100625.62;103178;1320;61328;-81
2022/04/20 08:30:54;;;;;;;;;;;;;;;18.72;41.86;100624.92;103476;1320;73853;-82
2022/04/20 08:33:35;;;;;;;;;;;;;;;18.72;42.00;100621.02;103365;1320;76990;-80
2022/04/20 08:36:46;;;;;;;;;;;;;;;18.72;42.01;100621.39;103572;1312;60102;-81
2022/04/20 08:39:17;;;;;;;;;;;;;;;;;;;;;
2022/04/20 08:42:19;;;;;;;;;;;;;;;18.72;41.92;100632.81;103568;1319;72178;-85
2022/04/20 08:45:26;;;;;;;;;;;;;;;;;;;;;
2022/04/20 08:48:15;;;;;;;;;;;;;;;18.71;42.04;100639.42;104106;1316;61405;-87
2022/04/20 08:51:03;;;;;;;;;;;;;;;18.71;41.97;100642.13;103506;1319;61753;-86
2022/04/20 08:54:12;;;;;;;;;;;;;;;18.71;41.74;100642.15;103402;1320;73278;-84
2022/04/20 09:00:41;;;;;;;;;;;;;;;18.70;41.89;100639.89;103184;1324;61203;-86
2022/04/20 09:03:36;;;;;;;;;;;;;;;;;;;;;
2022/04/20 09:06:51;;;;;;;;;;;;;;;18.70;41.98;100649.52;103213;1323;72759;-84
2022/04/20 09:09:30;;;;;;;;;;;;;;;18.69;41.81;100652.05;102977;1323;74840;-81
2022/04/20 09:12:18;;;;;;;;;;;;;;;18.69;41.98;100655.96;102557;1327;61365;-81
2022/04/20 09:15:11;;;;;;;;;;;;;;;18.69;41.79;100652.05;102393;1329;61604;-81
2022/04/20 09:17:41;;;;;;;;;;;;;;;18.69;41.93;100655.11;102442;1330;73762;-80
2022/04/20 09:20:31;;;;;;;;;;;;;;;18.69;41.89;100657.96;102333;1330;74830;-86
2022/04/20 09:23:26;;;;;;;;;;;;;;;18.69;41.93;100657.56;102216;1335;61220;-81
2022/04/20 09:26:08;;;;;;;;;;;;;;;18.69;41.83;100651.01;102211;1335;61434;-84
2022/04/20 09:28:40;;;;;;;;;;;;;;;18.69;41.83;100655.99;102409;1332;72854;-81
2022/04/20 09:31:28;;;;;;;;;;;;;;;18.69;41.84;100657.95;102518;1326;73580;-84
2022/04/20 09:34:18;;;;;;;;;;;;;;;18.69;41.72;100659.56;102786;1325;61206;-81
2022/04/20 09:37:03;;;;;;;;;;;;;;;18.69;41.75;100657.23;102827;1324;61314;-83
2022/04/20 09:40:27;;;;;;;;;;;;;;;18.68;41.71;100661.17;102607;1324;71799;-81
2022/04/20 09:43:22;;;;;;;;;;;;;;;18.68;41.67;100659.60;102805;1326;73375;-82
2022/04/20 09:49:48;;;;;;;;;;;;;;;18.68;41.55;100659.10;103234;1320;61306;-83
2022/04/20 09:52:47;;;;;;;;;;;;;;;;;;;;;
2022/04/20 09:55:36;;;;;;;;;;;;;;;18.67;41.50;100653.29;103172;1320;76040;-83
2022/04/20 09:58:34;;;;;;;;;;;;;;;18.65;41.52;100649.09;103602;1319;61340;-85
2022/04/20 10:01:51;;;;;;;;;;;;;;;;;;;;;
2022/04/20 10:04:44;;;;;;;;;;;;;;;;;;;;;
2022/04/20 10:07:39;;;;;;;;;;;;;;;18.65;41.31;100640.22;102969;1325;74780;-86
2022/04/20 10:10:19;;;;;;;;;;;;;;;18.65;41.38;100640.92;102535;1331;61318;-84
2022/04/20 10:13:39;;;;;;;;;;;;;;;;;;;;;
2022/04/20 10:16:24;;;;;;;;;;;;;;;18.65;41.27;100633.80;101802;1343;72343;-84
2022/04/20 10:19:26;;;;;;;;;;;;;;;;;;;;;
2022/04/20 10:22:26;;;;;;;;;;;;;;;;;;;;;
2022/04/20 10:25:32;;;;;;;;;;;;;;;18.64;41.21;100621.34;101863;1341;61406;-81
2022/04/20 10:28:38;;;;;;;;;;;;;;;;;;;;;
2022/04/20 10:31:54;;;;;;;;;;;;;;;;;;;;;
2022/04/20 10:34:51;;;;;;;;;;;;;;;18.65;41.15;100599.41;101864;1341;61455;-82
2022/04/20 10:37:57;;;;;;;;;;;;;;;18.65;41.20;100606.01;101732;1345;61387;-82
2022/04/20 10:40:51;;;;;;;;;;;;;;;18.65;41.24;100607.06;101483;1347;73779;-89
2022/04/20 10:43:48;;;;;;;;;;;;;;;18.65;41.39;100606.14;101591;1347;74716;-82
2022/04/20 10:46:41;;;;;;;;;;;;;;;18.65;41.43;100605.46;101830;1338;61421;-84
2022/04/20 10:49:50;;;;;;;;;;;;;;;18.65;41.43;100607.40;101826;1341;61711;-88
2022/04/20 10:53:29;;;;;;;;;;;;;;;18.65;41.45;100605.80;101844;1335;73657;-81
2022/04/20 10:55:45;;;;;;;;;;;;;;;18.65;41.60;100603.85;101877;1342;74972;-84
2022/04/20 10:58:57;;;;;;;;;;;;;;;18.65;41.50;100606.00;101931;1342;60323;-86
2022/04/20 11:01:57;;;;;;;;;;;;;;;18.64;41.58;100599.41;101745;1345;61196;-85
2022/04/20 11:05:13;;;;;;;;;;;;;;;18.64;41.61;100590.48;101283;1350;72246;-81
2022/04/20 11:08:20;;;;;;;;;;;;;;;18.64;41.66;100587.52;101150;1353;76017;-84
2022/04/20 11:24:57;;;;;;;;;;;;;;;18.64;41.77;100582.69;100844;1356;61487;-82
2022/04/20 11:28:13;;;;;;;;;;;;;;;;;;;;;
2022/04/20 11:31:17;;;;;;;;;;;;;;;;;;;;;
2022/04/20 11:34:11;;;;;;;;;;;;;;;18.63;41.90;100578.61;100988;1356;74822;-83
2022/04/20 11:37:16;;;;;;;;;;;;;;;;;;;;;
2022/04/20 11:40:12;;;;;;;;;;;;;;;;;;;;;
2022/04/20 11:43:11;;;;;;;;;;;;;;;;;;;;;
2022/04/20 11:45:46;;;;;;;;;;;;;;;18.63;41.90;100566.19;101648;1347;74896;-85
2022/04/20 11:49:01;;;;;;;;;;;;;;;18.63;42.02;100570.27;101619;1347;61223;-88
2022/04/20 11:52:14;;;;;;;;;;;;;;;18.63;41.92;100562.61;101674;1347;62005;-85
2022/04/20 11:55:03;;;;;;;;;;;;;;;18.63;41.92;100556.02;101624;1344;72897;-82
2022/04/20 11:57:41;;;;;;;;;;;;;;;18.62;41.92;100553.55;101568;1350;75871;-83
2022/04/20 12:00:47;;;;;;;;;;;;;;;18.63;41.89;100554.25;101690;1345;61209;-82
2022/04/20 12:04:02;;;;;;;;;;;;;;;18.62;41.96;100550.89;101785;1340;62064;-82
2022/04/20 12:06:39;;;;;;;;;;;;;;;18.63;41.98;100549.98;101887;1338;74236;-83
2022/04/20 12:09:54;;;;;;;;;;;;;;;;;;;;;
2022/04/20 12:12:27;;;;;;;;;;;;;;;18.63;41.85;100543.92;102009;1337;61447;-80
2022/04/20 12:15:31;;;;;;;;;;;;;;;18.63;41.97;100538.92;102343;1334;61239;-81
2022/04/20 12:18:17;;;;;;;;;;;;;;;18.63;41.94;100539.62;102595;1328;74042;-82
2022/04/20 12:21:10;;;;;;;;;;;;;;;;;;;;;
2022/04/20 12:24:01;;;;;;;;;;;;;;;18.63;41.94;100531.63;102264;1335;61315;-85
2022/04/20 12:33:04;;;;;;;;;;;;;;;18.62;41.94;100517.94;101758;1344;76143;-84
2022/04/20 12:36:07;;;;;;;;;;;;;;;18.62;41.96;100515.61;101981;1338;61884;-83
2022/04/20 12:38:52;;;;;;;;;;;;;;;18.62;42.03;100514.17;101940;1338;61188;-84
2022/04/20 12:42:41;;;;;;;;;;;;;;;18.63;42.06;100514.88;102209;1335;74244;-79
2022/04/20 12:45:07;;;;;;;;;;;;;;;18.62;42.08;100513.48;102153;1335;75084;-83
2022/04/20 12:47:56;;;;;;;;;;;;;;;18.62;42.10;100511.00;102201;1335;61481;-82
2022/04/20 12:51:00;;;;;;;;;;;;;;;18.62;42.13;100511.53;101931;1339;61791;-84
2022/04/20 12:54:00;;;;;;;;;;;;;;;;;;;;;
2022/04/20 13:03:25;;;;;;;;;;;;;;;18.61;42.13;100504.43;101982;1335;61677;-83
2022/04/20 13:06:22;;;;;;;;;;;;;;;18.61;42.25;100501.09;102058;1333;72907;-83
2022/04/20 13:09:21;;;;;;;;;;;;;;;;;;;;;
2022/04/20 13:12:21;;;;;;;;;;;;;;;;;;;;;
2022/04/20 13:15:17;;;;;;;;;;;;;;;18.61;42.23;100504.07;101888;1339;61178;-80
2022/04/20 13:18:11;;;;;;;;;;;;;;;18.62;42.21;100503.17;101865;1339;72781;-82
2022/04/20 13:21:00;;;;;;;;;;;;;;;18.61;42.19;100502.84;101629;1345;74782;-81
2022/04/20 13:24:08;;;;;;;;;;;;;;;18.61;42.22;100504.07;101683;1343;61971;-80
2022/04/20 13:30:07;;;;;;;;;;;;;;;18.61;42.30;100508.02;101692;1341;72918;-81
2022/04/20 13:33:10;;;;;;;;;;;;;;;;;;;;;
2022/04/20 13:36:07;;;;;;;;;;;;;;;;;;;;;
2022/04/20 13:39:17;;;;;;;;;;;;;;;18.61;42.28;100502.72;101589;1347;61548;-83
2022/04/20 13:41:57;;;;;;;;;;;;;;;18.60;42.23;100498.30;101437;1350;73044;-80
2022/04/20 13:45:13;;;;;;;;;;;;;;;;;;;;;
2022/04/20 13:48:19;;;;;;;;;;;;;;;18.60;42.16;100498.29;101708;1347;61354;-82
2022/04/20 13:51:16;;;;;;;;;;;;;;;;;;;;;
2022/04/20 13:53:47;;;;;;;;;;;;;;;18.59;42.29;100491.39;101802;1338;73683;-81
2022/04/20 13:56:37;;;;;;;;;;;;;;;18.59;42.23;100489.60;101817;1338;73793;-84
2022/04/20 13:59:59;;;;;;;;;;;;;;;18.59;42.19;100486.73;102158;1334;61202;-80
2022/04/20 14:02:04;;;;;;;;;;;;;;;18.58;42.15;100493.55;102011;1335;61480;-80
2022/04/20 14:04:59;;;;;;;;;;;;;;;18.58;42.23;100493.58;101772;1338;71637;-82
2022/04/20 14:07:48;;;;;;;;;;;;;;;18.58;42.23;100492.66;101788;1338;73541;-82
2022/04/20 14:10:38;;;;;;;;;;;;;;;18.58;42.24;100489.81;101735;1338;61365;-80
2022/04/20 14:13:30;;;;;;;;;;;;;;;18.58;42.37;100489.10;101985;1334;61244;-82
2022/04/20 14:16:38;;;;;;;;;;;;;;;;;;;;;
2022/04/20 14:19:44;;;;;;;;;;;;;;;;;;;;;
2022/04/20 14:23:02;;;;;;;;;;;;;;;18.57;42.22;100490.98;101762;1344;61835;-80
2022/04/20 14:32:44;;;;;;;;;;;;;;;;;;;;;
2022/04/20 14:35:54;;;;;;;;;;;;;;;18.56;42.13;100498.73;101785;1345;61429;-82
2022/04/20 14:39:01;;;;;;;;;;;;;;;18.55;42.15;100499.84;101854;1342;61499;-85
2022/04/20 14:45:03;;;;;;;;;;;;;;;18.54;42.14;100498.31;102065;1338;73549;-85
2022/04/20 14:50:58;;;;;;;;;;;;;;;18.53;42.12;100494.25;102037;1339;61597;-86
2022/04/20 14:54:14;;;;;;;;;;;;;;;;;;;;;
2022/04/20 14:57:25;;;;;;;;;;;;;;;18.53;41.99;100493.55;102318;1335;74876;-81
2022/04/20 15:00:20;;;;;;;;;;;;;;;18.52;42.08;100495.03;102497;1326;61419;-80
2022/04/20 15:03:18;;;;;;;;;;;;;;;18.52;41.99;100495.41;102637;1326;61242;-81
2022/04/20 15:06:11;;;;;;;;;;;;;;;;;;;;;
2022/04/20 15:12:41;;;;;;;;;;;;;;;18.52;42.08;100496.48;102744;1327;61300;-85
2022/04/20 15:14:51;;;;;;;;;;;;;;;18.51;42.14;100495.64;102362;1335;61508;-81
2022/04/20 15:17:58;;;;;;;;;;;;;;;18.51;42.03;100499.93;102355;1334;73952;-88
2022/04/20 15:20:38;;;;;;;;;;;;;;;18.51;41.98;100498.52;101996;1338;75055;-80
2022/04/20 15:26:50;;;;;;;;;;;;;;;18.50;42.06;100499.80;101848;1338;61340;-81
2022/04/20 15:29:56;;;;;;;;;;;;;;;18.49;42.01;100493.63;101896;1338;74252;-87
2022/04/20 15:33:15;;;;;;;;;;;;;;;;;;;;;
2022/04/20 15:36:10;;;;;;;;;;;;;;;18.50;42.05;100494.84;101835;1341;61441;-84
2022/04/20 15:39:27;;;;;;;;;;;;;;;;;;;;;
2022/04/20 15:42:58;;;;;;;;;;;;;;;18.49;42.00;100490.95;101577;1347;73997;-87
2022/04/20 15:45:37;;;;;;;;;;;;;;;18.49;41.99;100492.19;101671;1347;75819;-85
2022/04/20 15:48:23;;;;;;;;;;;;;;;18.49;41.93;100492.20;101565;1348;61539;-83
2022/04/20 15:51:49;;;;;;;;;;;;;;;;;;;;;
2022/04/20 16:01:25;;;;;;;;;;;;;;;;;;;;;
2022/04/20 16:04:18;;;;;;;;;;;;;;;18.49;41.92;100494.91;101447;1351;61389;-83
2022/04/20 16:07:20;;;;;;;;;;;;;;;18.49;41.94;100493.83;101491;1348;72863;-84
2022/04/20 16:10:27;;;;;;;;;;;;;;;18.49;41.91;100496.31;101563;1347;74941;-81
2022/04/20 16:13:16;;;;;;;;;;;;;;;18.48;41.87;100494.04;101485;1350;61287;-86
2022/04/20 16:16:42;;;;;;;;;;;;;;;;;;;;;
2022/04/20 16:19:37;;;;;;;;;;;;;;;18.48;41.99;100494.25;100980;1353;72995;-80
2022/04/20 16:22:45;;;;;;;;;;;;;;;18.49;41.93;100491.52;101078;1354;73865;-83
2022/04/20 16:25:41;;;;;;;;;;;;;;;18.49;41.88;100494.73;101132;1353;61421;-83
2022/04/20 16:28:23;;;;;;;;;;;;;;;18.49;41.92;100492.95;101520;1347;61545;-82
2022/04/20 16:31:29;;;;;;;;;;;;;;;18.49;41.94;100495.98;101748;1341;71644;-85
2022/04/20 16:34:36;;;;;;;;;;;;;;;18.48;41.82;100497.06;101902;1338;74849;-89
2022/04/20 16:37:27;;;;;;;;;;;;;;;;;;;;;
2022/04/20 16:40:40;;;;;;;;;;;;;;;;;;;;;
2022/04/20 16:43:39;;;;;;;;;;;;;;;18.48;41.85;100508.51;102124;1338;74052;-86
2022/04/20 16:46:43;;;;;;;;;;;;;;;18.47;41.83;100508.89;102150;1332;76232;-79
2022/04/20 16:49:21;;;;;;;;;;;;;;;;;;;;;
2022/04/20 16:52:25;;;;;;;;;;;;;;;18.48;41.81;100519.77;102786;1326;61192;-86
2022/04/20 16:55:38;;;;;;;;;;;;;;;;;;;;;
2022/04/20 17:01:29;;;;;;;;;;;;;;;18.47;41.79;100526.40;102687;1329;61479;-83
2022/04/20 17:04:45;;;;;;;;;;;;;;;18.47;41.74;100528.56;102567;1332;61355;-80
2022/04/20 17:07:48;;;;;;;;;;;;;;;;;;;;;
2022/04/20 17:14:19;;;;;;;;;;;;;;;;;;;;;
2022/04/20 17:17:29;;;;;;;;;;;;;;;18.46;41.79;100549.11;101787;1344;61560;-84
2022/04/20 17:27:05;;;;;;;;;;;;;;;18.45;41.75;100561.98;101630;1347;61249;-83
2022/04/20 17:30:02;;;;;;;;;;;;;;;18.45;41.85;100563.42;101500;1350;62005;-89
2022/04/20 17:33:22;;;;;;;;;;;;;;;;;;;;;
2022/04/20 17:39:57;;;;;;;;;;;;;;;18.43;41.70;100573.67;100759;1357;61181;-78
2022/04/20 17:42:20;;;;;;;;;;;;;;;18.42;41.66;100578.67;101062;1353;61401;-83
2022/04/20 17:46:14;;;;;;;;;;;;;;;18.43;41.70;100584.18;100402;1361;71672;-83
2022/04/20 17:48:38;;;;;;;;;;;;;;;18.42;41.88;100585.80;100334;1362;75783;-87
2022/04/20 17:51:47;;;;;;;;;;;;;;;18.42;41.74;100589.20;100975;1354;61492;-85
2022/04/20 17:54:59;;;;;;;;;;;;;;;18.41;41.73;100591.92;101368;1350;61386;-85
2022/04/20 17:57:48;;;;;;;;;;;;;;;18.42;41.73;100596.55;101486;1350;73008;-83
2022/04/20 18:00:35;;;;;;;;;;;;;;;18.41;41.77;100600.14;101526;1350;76644;-86
2022/04/20 18:03:26;;;;;;;;;;;;;;;18.41;41.74;100604.08;101496;1350;61358;-83
2022/04/20 18:06:32;;;;;;;;;;;;;;;18.41;41.61;100606.23;101804;1338;61500;-83
2022/04/20 18:09:51;;;;;;;;;;;;;;;;;;;;;
2022/04/20 18:12:47;;;;;;;;;;;;;;;18.40;41.75;100618.55;101871;1342;76015;-82
2022/04/20 18:15:45;;;;;;;;;;;;;;;;;;;;;
2022/04/20 18:18:44;;;;;;;;;;;;;;;;;;;;;
2022/04/20 18:21:48;;;;;;;;;;;;;;;;;;;;;
2022/04/20 18:24:52;;;;;;;;;;;;;;;18.39;41.67;100631.09;102596;1329;74695;-83
2022/04/20 18:27:28;;;;;;;;;;;;;;;18.39;41.69;100633.05;102158;1335;61763;-85
2022/04/20 18:30:40;;;;;;;;;;;;;;;18.40;41.66;100641.23;102235;1335;61428;-82
2022/04/20 18:33:57;;;;;;;;;;;;;;;;;;;;;
2022/04/20 18:36:44;;;;;;;;;;;;;;;;;;;;;
2022/04/20 18:39:29;;;;;;;;;;;;;;;18.39;41.64;100642.88;101884;1338;61364;-79
2022/04/20 18:42:34;;;;;;;;;;;;;;;18.39;41.68;100644.66;101905;1338;61549;-83
2022/04/20 18:45:52;;;;;;;;;;;;;;;;;;;;;
2022/04/20 18:48:41;;;;;;;;;;;;;;;18.38;41.65;100646.99;101896;1338;74673;-84